Time;durP1;ratioP1;P1;durP2;ratioP2;P2;SDS_P1;SDS_P2;PMS_P1;PMS_P2;Temp;Humidity;BMP_temperature;BMP_pressure;BME280_temperature;BME280_humidity;BME280_pressure;Samples;Min_cycle;Max_cycle;Signal;HPM_P1;HPM_P2
2022/01/17 00:01:52;;;;;;;52.38;27.80;;;2.40;99.90;;;;;;5029713;28;20369;-66
2022/01/17 00:04:20;;;;;;;49.95;26.10;;;2.40;99.90;;;;;;5030021;28;20425;-67
2022/01/17 00:06:48;;;;;;;51.05;26.33;;;2.40;99.90;;;;;;5029803;28;20061;-67
2022/01/17 00:09:16;;;;;;;46.55;25.95;;;2.50;99.90;;;;;;5030036;28;20369;-67
2022/01/17 00:11:45;;;;;;;57.75;28.90;;;2.50;99.90;;;;;;5029806;28;20408;-67
2022/01/17 00:14:17;;;;;;;53.60;27.58;;;2.50;99.90;;;;;;5029899;28;20404;-67
2022/01/17 00:16:51;;;;;;;48.10;26.08;;;2.50;99.90;;;;;;5030200;28;20097;-67
2022/01/17 00:21:50;;;;;;;47.78;25.50;;;2.50;99.90;;;;;;5034395;28;20049;-66
2022/01/17 00:24:19;;;;;;;49.95;27.20;;;2.50;99.90;;;;;;5039141;28;20056;-67
2022/01/17 00:26:47;;;;;;;47.20;24.75;;;2.50;99.90;;;;;;5040669;28;20041;-66
2022/01/17 00:29:14;;;;;;;50.00;25.92;;;2.50;99.90;;;;;;5032147;28;20049;-66
2022/01/17 00:31:42;;;;;;;43.80;24.73;;;2.50;99.90;;;;;;5045864;28;20465;-66
2022/01/17 00:34:09;;;;;;;48.97;25.17;;;2.60;99.90;;;;;;5031332;28;20046;-66
2022/01/17 00:36:37;;;;;;;47.38;25.95;;;2.60;99.90;;;;;;5037893;28;20041;-64
2022/01/17 00:39:04;;;;;;;48.13;24.63;;;2.50;99.90;;;;;;5029999;28;20042;-65
2022/01/17 00:41:31;;;;;;;44.33;25.05;;;2.50;99.90;;;;;;5034517;28;20037;-64
2022/01/17 00:43:59;;;;;;;47.03;25.15;;;2.50;99.90;;;;;;5033720;28;20041;-65
2022/01/17 00:46:26;;;;;;;51.90;27.02;;;2.50;99.90;;;;;;5038251;28;20049;-66
2022/01/17 00:48:53;;;;;;;44.08;23.65;;;2.50;99.90;;;;;;5035171;28;20037;-64
2022/01/17 00:51:21;;;;;;;51.33;25.90;;;2.50;99.90;;;;;;5031119;28;20416;-66
2022/01/17 00:53:50;;;;;;;47.22;25.52;;;2.50;99.90;;;;;;5036095;28;20138;-66
2022/01/17 00:56:20;;;;;;;49.40;24.75;;;2.40;99.90;;;;;;5029421;28;20084;-66
2022/01/17 00:58:49;;;;;;;45.20;23.10;;;2.50;99.90;;;;;;5029048;28;20577;-65
2022/01/17 01:01:16;;;;;;;44.25;23.92;;;2.50;99.90;;;;;;5028983;28;20436;-65
2022/01/17 01:03:44;;;;;;;46.35;24.55;;;2.50;99.90;;;;;;5029307;28;20045;-66
2022/01/17 01:06:12;;;;;;;43.25;24.17;;;2.50;99.90;;;;;;5029084;28;20057;-66
2022/01/17 01:08:39;;;;;;;42.67;23.55;;;2.40;99.90;;;;;;5028556;28;20049;-66
2022/01/17 01:11:07;;;;;;;46.88;25.58;;;2.40;99.90;;;;;;5029245;28;20131;-66
2022/01/17 01:13:34;;;;;;;46.22;25.35;;;2.50;99.90;;;;;;5025901;28;20419;-66
2022/01/17 01:29:23;;;;;;;45.67;24.88;;;2.40;99.90;;;;;;5020523;28;20049;-66
2022/01/17 01:31:55;;;;;;;48.15;25.55;;;2.40;99.90;;;;;;5042162;28;20048;-66
2022/01/17 01:34:32;;;;;;;52.70;26.25;;;2.40;99.90;;;;;;5024108;28;20077;-66
2022/01/17 01:37:02;;;;;;;47.50;26.17;;;2.40;99.90;;;;;;5023569;28;20562;-66
2022/01/17 01:39:30;;;;;;;48.83;26.25;;;2.40;99.90;;;;;;5033822;28;20411;-67
2022/01/17 01:41:58;;;;;;;52.10;25.60;;;2.40;99.90;;;;;;5033768;28;20496;-66
2022/01/17 01:44:27;;;;;;;44.38;25.27;;;2.40;99.90;;;;;;5031666;28;20546;-67
2022/01/17 01:46:56;;;;;;;48.45;24.80;;;2.50;99.90;;;;;;5036356;28;20080;-67
2022/01/17 01:49:25;;;;;;;46.75;25.45;;;2.50;99.90;;;;;;5040123;28;20049;-67
2022/01/17 01:51:52;;;;;;;49.13;26.20;;;2.40;99.90;;;;;;5027314;28;20044;-67
2022/01/17 01:54:19;;;;;;;46.78;24.98;;;2.40;99.90;;;;;;5038976;28;20566;-66
2022/01/17 01:56:49;;;;;;;52.22;25.75;;;2.40;99.90;;;;;;5028101;28;20357;-66
2022/01/17 01:59:20;;;;;;;50.80;24.35;;;2.50;99.90;;;;;;5028488;28;20120;-67
2022/01/17 02:01:48;;;;;;;44.65;24.42;;;2.50;99.90;;;;;;5028192;28;20140;-66
2022/01/17 02:04:16;;;;;;;49.50;25.70;;;2.50;99.90;;;;;;5028115;28;20049;-67
2022/01/17 02:06:44;;;;;;;48.30;25.13;;;2.50;99.90;;;;;;5027938;28;20049;-66
2022/01/17 02:09:11;;;;;;;44.60;25.48;;;2.50;99.90;;;;;;5027592;28;20374;-66
2022/01/17 02:11:38;;;;;;;47.90;25.17;;;2.50;99.90;;;;;;5028081;28;20526;-67
2022/01/17 02:14:06;;;;;;;46.58;25.17;;;2.60;99.90;;;;;;5027950;28;20096;-66
2022/01/17 02:16:33;;;;;;;50.17;26.02;;;2.60;99.90;;;;;;5028099;28;20041;-66
2022/01/17 02:19:01;;;;;;;50.03;25.33;;;2.50;99.90;;;;;;5027950;28;20490;-65
2022/01/17 02:21:45;;;;;;;49.45;26.00;;;2.50;99.90;;;;;;5026524;28;20068;-65
2022/01/17 02:24:16;;;;;;;49.85;24.95;;;2.50;99.90;;;;;;5015965;28;20053;-65
2022/01/17 02:26:45;;;;;;;50.55;26.33;;;2.60;99.90;;;;;;5028683;28;20496;-67
2022/01/17 02:29:12;;;;;;;48.38;25.25;;;2.60;99.90;;;;;;5027969;28;20501;-67
2022/01/17 02:31:41;;;;;;;50.40;26.52;;;2.60;99.90;;;;;;5027915;28;20061;-67
2022/01/17 02:34:08;;;;;;;52.75;26.55;;;2.50;99.90;;;;;;5030130;28;20068;-67
2022/01/17 02:36:36;;;;;;;49.70;26.65;;;2.40;99.90;;;;;;5024335;28;20121;-67
2022/01/17 02:39:04;;;;;;;49.20;26.27;;;2.50;99.90;;;;;;5038514;28;20160;-67
2022/01/17 02:41:38;;;;;;;52.15;25.42;;;2.40;99.90;;;;;;5028184;28;20128;-66
2022/01/17 02:44:06;;;;;;;51.70;26.40;;;2.50;99.90;;;;;;5039969;28;20053;-66
2022/01/17 02:46:34;;;;;;;50.47;26.27;;;2.50;99.90;;;;;;5017020;28;20535;-66
2022/01/17 02:49:03;;;;;;;48.65;25.88;;;2.50;99.90;;;;;;5040923;28;20048;-66
2022/01/17 02:51:30;;;;;;;52.58;27.00;;;2.50;99.90;;;;;;5043961;28;20067;-66
2022/01/17 02:53:58;;;;;;;48.85;25.60;;;2.50;99.90;;;;;;5032612;28;20046;-66
2022/01/17 02:56:26;;;;;;;47.15;24.20;;;2.50;99.90;;;;;;5039646;28;20061;-66
2022/01/17 02:58:55;;;;;;;50.85;24.85;;;2.60;99.90;;;;;;5037192;28;20041;-66
2022/01/17 03:01:28;;;;;;;51.25;26.63;;;2.50;99.90;;;;;;5021555;28;20042;-66
2022/01/17 03:03:56;;;;;;;50.60;25.70;;;2.60;99.90;;;;;;5029857;28;20045;-66
2022/01/17 03:06:25;;;;;;;54.67;26.00;;;2.60;99.90;;;;;;5040429;28;20041;-65
2022/01/17 03:08:52;;;;;;;51.05;26.27;;;2.50;99.90;;;;;;5033557;28;20122;-66
2022/01/17 03:11:23;;;;;;;50.35;26.20;;;2.50;99.90;;;;;;5038339;28;20069;-66
2022/01/17 03:13:51;;;;;;;47.83;26.08;;;2.60;99.90;;;;;;5043743;28;20041;-66
2022/01/17 03:16:30;;;;;;;47.90;25.60;;;2.60;99.90;;;;;;5047936;28;20045;-66
2022/01/17 03:18:58;;;;;;;49.97;25.13;;;2.50;99.90;;;;;;5042713;28;20049;-65
2022/01/17 03:21:28;;;;;;;52.35;26.55;;;2.50;99.90;;;;;;5044878;28;20041;-65
2022/01/17 03:23:56;;;;;;;53.97;27.05;;;2.50;99.90;;;;;;5045914;28;20045;-66
2022/01/17 03:26:23;;;;;;;48.00;26.05;;;2.50;99.90;;;;;;5047003;28;20494;-66
2022/01/17 03:28:51;;;;;;;49.10;25.00;;;2.50;99.90;;;;;;5044723;28;20047;-66
2022/01/17 03:31:18;;;;;;;51.28;25.73;;;2.50;99.90;;;;;;5048633;28;20059;-66
2022/01/17 03:33:45;;;;;;;48.13;26.02;;;2.50;99.90;;;;;;5037986;28;20472;-65
2022/01/17 03:36:13;;;;;;;50.65;25.83;;;2.50;99.90;;;;;;5046684;28;20037;-66
2022/01/17 03:38:42;;;;;;;48.00;25.50;;;2.50;99.90;;;;;;5038669;28;20045;-67
2022/01/17 03:41:13;;;;;;;47.47;25.88;;;2.60;99.90;;;;;;5045639;28;20396;-65
2022/01/17 03:43:41;;;;;;;52.03;26.38;;;2.50;99.90;;;;;;5039784;28;20045;-67
2022/01/17 03:46:08;;;;;;;50.17;26.00;;;2.60;99.90;;;;;;5044091;28;20072;-66
2022/01/17 03:48:36;;;;;;;51.35;25.45;;;2.60;99.90;;;;;;5036997;28;20049;-66
2022/01/17 03:51:03;;;;;;;50.53;26.50;;;2.50;99.90;;;;;;5030413;28;20049;-66
2022/01/17 03:53:31;;;;;;;51.03;26.75;;;2.50;99.90;;;;;;5046187;28;20029;-66
2022/01/17 03:55:58;;;;;;;51.10;26.85;;;2.50;99.90;;;;;;5045476;28;20139;-66
2022/01/17 03:58:27;;;;;;;54.28;26.13;;;2.50;99.90;;;;;;5050782;28;20048;-66
2022/01/17 04:00:56;;;;;;;55.58;27.15;;;2.50;99.90;;;;;;5037183;28;20457;-67
2022/01/17 04:03:25;;;;;;;48.53;25.17;;;2.60;99.90;;;;;;5020981;28;20045;-68
2022/01/17 04:05:52;;;;;;;51.70;26.70;;;2.50;99.90;;;;;;5033429;28;20072;-67
2022/01/17 04:08:20;;;;;;;52.22;26.00;;;2.50;99.90;;;;;;5032794;28;20116;-68
2022/01/17 04:10:48;;;;;;;52.97;26.50;;;2.50;99.90;;;;;;5040894;28;20056;-67
2022/01/17 04:13:15;;;;;;;51.22;24.67;;;2.50;99.90;;;;;;5042666;28;20127;-67
2022/01/17 04:15:43;;;;;;;49.20;24.55;;;2.60;99.90;;;;;;5040000;28;20111;-67
2022/01/17 04:18:11;;;;;;;47.28;24.67;;;2.60;99.90;;;;;;5044555;28;20051;-67
2022/01/17 04:20:40;;;;;;;45.53;24.05;;;2.60;99.90;;;;;;5035681;28;20076;-65
2022/01/17 04:23:10;;;;;;;44.95;24.23;;;2.60;99.90;;;;;;5035356;28;20045;-67
2022/01/17 04:25:39;;;;;;;48.88;24.00;;;2.60;99.90;;;;;;5029070;28;20044;-67
2022/01/17 04:28:08;;;;;;;51.70;24.98;;;2.60;99.90;;;;;;5035659;28;20136;-66
2022/01/17 04:30:36;;;;;;;44.60;24.30;;;2.60;99.90;;;;;;5036017;28;20512;-65
2022/01/17 04:33:04;;;;;;;50.92;24.02;;;2.60;99.90;;;;;;5037493;28;20144;-66
2022/01/17 04:35:32;;;;;;;49.58;24.85;;;2.60;99.90;;;;;;5026824;28;20510;-66
2022/01/17 04:38:03;;;;;;;49.40;24.65;;;2.60;99.90;;;;;;5036784;28;20424;-67
2022/01/17 04:40:36;;;;;;;46.22;23.70;;;2.60;99.90;;;;;;5040521;28;20141;-67
2022/01/17 04:43:43;;;;;;;48.10;23.38;;;2.60;99.90;;;;;;5027732;28;20054;-66
2022/01/17 04:46:11;;;;;;;48.97;24.00;;;2.60;99.90;;;;;;5034267;28;20287;-67
2022/01/17 04:48:38;;;;;;;53.55;25.40;;;2.60;99.90;;;;;;5036842;28;20045;-67
2022/01/17 04:51:06;;;;;;;50.97;25.27;;;2.50;99.90;;;;;;5037529;28;20068;-66
2022/01/17 04:53:33;;;;;;;49.83;24.17;;;2.60;99.90;;;;;;5038083;28;20483;-66
2022/01/17 04:56:00;;;;;;;50.88;25.17;;;2.60;99.90;;;;;;5045455;28;20368;-66
2022/01/17 04:58:28;;;;;;;48.15;23.92;;;2.60;99.90;;;;;;5043873;28;20033;-67
2022/01/17 05:00:56;;;;;;;50.50;24.88;;;2.60;99.90;;;;;;5029228;28;20053;-66
2022/01/17 05:03:25;;;;;;;54.35;24.73;;;2.60;99.90;;;;;;5040892;28;20136;-66
2022/01/17 05:05:54;;;;;;;48.97;23.95;;;2.60;99.90;;;;;;5027773;28;20033;-66
2022/01/17 05:08:21;;;;;;;51.35;26.13;;;2.50;99.90;;;;;;5040917;28;20156;-66
2022/01/17 05:10:53;;;;;;;53.03;25.23;;;2.50;99.90;;;;;;5039383;28;20045;-66
2022/01/17 05:13:26;;;;;;;51.67;25.70;;;2.50;99.90;;;;;;5035945;28;20496;-66
2022/01/17 05:16:13;;;;;;;53.13;24.92;;;2.50;99.90;;;;;;5022387;28;20046;-66
2022/01/17 05:21:08;;;;;;;50.85;25.38;;;2.50;99.90;;;;;;5035002;28;20046;-66
2022/01/17 05:23:36;;;;;;;50.30;24.10;;;2.60;99.90;;;;;;5041774;28;20045;-66
2022/01/17 05:26:03;;;;;;;50.97;25.33;;;2.60;99.90;;;;;;5042098;28;20060;-66
2022/01/17 05:28:30;;;;;;;55.47;25.10;;;2.50;99.90;;;;;;5047438;28;20136;-66
2022/01/17 05:30:57;;;;;;;55.15;26.15;;;2.60;99.90;;;;;;5047467;28;20044;-64
2022/01/17 05:33:25;;;;;;;53.17;25.33;;;2.50;99.90;;;;;;5036644;28;20046;-65
2022/01/17 05:35:52;;;;;;;49.40;24.27;;;2.50;99.90;;;;;;5033989;28;20568;-65
2022/01/17 05:38:19;;;;;;;53.60;24.58;;;2.60;99.90;;;;;;5031392;28;20392;-67
2022/01/17 05:40:46;;;;;;;54.22;23.75;;;2.60;99.90;;;;;;5030463;28;20046;-66
2022/01/17 05:43:14;;;;;;;46.03;23.42;;;2.50;99.90;;;;;;5023750;28;20055;-66
2022/01/17 05:45:42;;;;;;;49.92;24.00;;;2.50;99.90;;;;;;5040939;28;20049;-67
2022/01/17 05:48:09;;;;;;;47.53;23.08;;;2.50;99.90;;;;;;5036800;28;20431;-67
2022/01/17 05:50:36;;;;;;;46.08;22.88;;;2.60;99.90;;;;;;5043474;28;20049;-66
2022/01/17 05:53:03;;;;;;;46.20;23.58;;;2.60;99.90;;;;;;5032972;28;20488;-67
2022/01/17 05:55:31;;;;;;;46.72;23.92;;;2.60;99.90;;;;;;5043152;28;20041;-66
2022/01/17 05:57:59;;;;;;;49.15;23.27;;;2.60;99.90;;;;;;5036671;28;20048;-66
2022/01/17 06:00:27;;;;;;;49.50;23.52;;;2.60;99.90;;;;;;5035406;28;20069;-65
2022/01/17 06:02:54;;;;;;;47.40;22.92;;;2.60;99.90;;;;;;5022733;28;20049;-67
2022/01/17 06:05:21;;;;;;;54.88;25.50;;;2.60;99.90;;;;;;5038951;28;20045;-66
2022/01/17 06:07:49;;;;;;;46.53;23.30;;;2.60;99.90;;;;;;5026063;28;20047;-67
2022/01/17 06:10:16;;;;;;;49.55;22.77;;;2.60;99.90;;;;;;5034729;28;20416;-66
2022/01/17 06:12:44;;;;;;;49.50;23.17;;;2.60;99.90;;;;;;5027734;28;20535;-66
2022/01/17 06:15:11;;;;;;;45.80;23.33;;;2.60;99.90;;;;;;5027989;28;20050;-66
2022/01/17 06:17:39;;;;;;;44.85;21.65;;;2.50;99.90;;;;;;5028038;28;20617;-66
2022/01/17 06:20:06;;;;;;;52.00;23.35;;;2.50;99.90;;;;;;5027771;28;20068;-66
2022/01/17 06:22:34;;;;;;;49.45;23.85;;;2.50;99.90;;;;;;5027559;28;20045;-65
2022/01/17 06:25:01;;;;;;;48.03;22.33;;;2.50;99.90;;;;;;5027516;28;20045;-68
2022/01/17 06:27:29;;;;;;;48.60;23.48;;;2.50;99.90;;;;;;5014314;28;20370;-67
2022/01/17 06:29:59;;;;;;;57.45;25.83;;;2.50;99.90;;;;;;5027926;28;20401;-67
2022/01/17 06:32:27;;;;;;;49.38;23.77;;;2.50;99.90;;;;;;5041681;28;20132;-66
2022/01/17 06:34:54;;;;;;;50.50;22.67;;;2.50;99.90;;;;;;5038425;28;20060;-66
2022/01/17 06:37:22;;;;;;;48.88;22.92;;;2.50;99.90;;;;;;5034142;28;20072;-67
2022/01/17 06:39:53;;;;;;;47.50;22.70;;;2.50;99.90;;;;;;5031668;28;20108;-67
2022/01/17 06:42:21;;;;;;;47.22;23.20;;;2.40;99.90;;;;;;5030979;28;20052;-67
2022/01/17 06:44:51;;;;;;;48.72;23.55;;;2.40;99.90;;;;;;5031528;28;20041;-68
2022/01/17 06:47:19;;;;;;;59.10;24.67;;;2.40;99.90;;;;;;5031288;28;20419;-67
2022/01/17 06:49:47;;;;;;;52.53;23.85;;;2.40;99.90;;;;;;5030851;28;20029;-68
2022/01/17 06:52:15;;;;;;;52.72;24.05;;;2.40;99.90;;;;;;5029495;28;20479;-67
2022/01/17 06:54:43;;;;;;;53.42;22.77;;;2.40;99.90;;;;;;5035917;28;20041;-67
2022/01/17 06:57:10;;;;;;;50.50;23.05;;;2.40;99.90;;;;;;5036578;28;20146;-68
2022/01/17 06:59:39;;;;;;;52.22;22.95;;;2.50;99.90;;;;;;5029834;28;20034;-67
2022/01/17 07:02:08;;;;;;;46.42;22.48;;;2.50;99.90;;;;;;5029515;28;20115;-68
2022/01/17 07:04:35;;;;;;;44.58;21.58;;;2.50;99.90;;;;;;5034172;28;20492;-67
2022/01/17 07:07:03;;;;;;;51.35;22.67;;;2.50;99.90;;;;;;5022188;28;20563;-67
2022/01/17 07:09:30;;;;;;;43.58;21.63;;;2.50;99.90;;;;;;5039407;28;20385;-67
2022/01/17 07:11:59;;;;;;;43.00;20.10;;;2.50;99.90;;;;;;5032201;28;20056;-66
2022/01/17 07:14:27;;;;;;;42.08;20.88;;;2.50;99.90;;;;;;5020940;28;20042;-65
2022/01/17 07:16:55;;;;;;;41.25;19.45;;;2.50;99.90;;;;;;5031508;28;20045;-66
2022/01/17 07:19:23;;;;;;;42.17;19.05;;;2.60;99.90;;;;;;5031851;28;20041;-66
2022/01/17 07:21:51;;;;;;;46.15;21.08;;;2.60;99.90;;;;;;5031905;28;20053;-67
2022/01/17 07:24:37;;;;;;;37.58;18.27;;;2.60;99.90;;;;;;5028691;28;20500;-67
2022/01/17 07:27:04;;;;;;;39.53;18.42;;;2.70;99.90;;;;;;5031640;28;20049;-66
2022/01/17 07:29:32;;;;;;;33.42;17.42;;;2.70;99.90;;;;;;5029250;28;20539;-65
2022/01/17 07:31:59;;;;;;;36.17;17.55;;;2.80;99.90;;;;;;5032987;28;20041;-65
2022/01/17 07:34:26;;;;;;;37.20;17.30;;;2.80;99.90;;;;;;5031759;28;20500;-66
2022/01/17 07:36:54;;;;;;;37.20;16.80;;;2.80;99.90;;;;;;5034758;28;20044;-65
2022/01/17 07:39:22;;;;;;;34.92;17.02;;;2.80;99.90;;;;;;5032151;28;20045;-67
2022/01/17 07:41:49;;;;;;;30.80;15.45;;;2.80;99.90;;;;;;5030829;28;20068;-67
2022/01/17 07:44:20;;;;;;;31.83;15.73;;;2.90;99.90;;;;;;5035899;28;20041;-66
2022/01/17 07:46:53;;;;;;;32.22;15.57;;;2.90;99.90;;;;;;5028952;28;20511;-65
2022/01/17 07:49:22;;;;;;;34.35;16.38;;;2.90;99.90;;;;;;5033670;28;20190;-65
2022/01/17 07:51:59;;;;;;;37.15;17.90;;;2.90;99.90;;;;;;5030832;28;20051;-65
2022/01/17 07:54:29;;;;;;;31.65;15.38;;;2.90;99.90;;;;;;5033022;28;20049;-66
2022/01/17 07:56:57;;;;;;;31.25;15.65;;;2.90;99.90;;;;;;5017953;28;20055;-66
2022/01/17 07:59:25;;;;;;;33.40;15.32;;;2.90;99.90;;;;;;5031315;28;20041;-65
2022/01/17 08:01:53;;;;;;;31.65;16.30;;;3.00;99.90;;;;;;5019828;28;20037;-66
2022/01/17 08:04:21;;;;;;;30.75;16.30;;;3.00;99.90;;;;;;5028608;28;20055;-66
2022/01/17 08:06:50;;;;;;;29.52;15.18;;;3.00;99.90;;;;;;5031232;28;20045;-67
2022/01/17 08:09:29;;;;;;;30.23;15.88;;;3.10;99.90;;;;;;5039053;28;20444;-66
2022/01/17 08:12:08;;;;;;;30.67;15.13;;;3.00;99.90;;;;;;5033938;28;20053;-66
2022/01/17 08:14:36;;;;;;;28.70;15.02;;;3.10;99.90;;;;;;5030572;28;20042;-65
2022/01/17 08:17:05;;;;;;;34.92;15.73;;;3.00;99.90;;;;;;5028328;28;20503;-66
2022/01/17 08:19:33;;;;;;;37.10;15.68;;;3.10;99.90;;;;;;5031065;28;20049;-66
2022/01/17 08:22:01;;;;;;;28.88;15.68;;;3.10;99.90;;;;;;5026488;28;20037;-63
2022/01/17 08:24:30;;;;;;;33.35;15.43;;;3.10;99.90;;;;;;5019202;28;20591;-66
2022/01/17 08:26:58;;;;;;;29.30;15.02;;;3.20;99.90;;;;;;5028573;28;20052;-66
2022/01/17 08:29:26;;;;;;;32.15;16.13;;;3.20;99.90;;;;;;5030783;28;20041;-65
2022/01/17 08:31:56;;;;;;;40.33;16.48;;;3.20;99.90;;;;;;5018955;28;20050;-66
2022/01/17 08:34:24;;;;;;;28.70;15.88;;;3.20;99.90;;;;;;5028046;28;20049;-65
2022/01/17 08:36:53;;;;;;;28.42;14.15;;;3.20;99.90;;;;;;5026933;28;20361;-65
2022/01/17 08:39:21;;;;;;;29.83;14.73;;;3.20;99.90;;;;;;5028121;28;20053;-65
2022/01/17 08:41:48;;;;;;;35.20;16.50;;;3.20;99.90;;;;;;5027686;28;20505;-65
2022/01/17 08:44:18;;;;;;;31.85;15.80;;;3.20;99.90;;;;;;5033446;28;20045;-65
2022/01/17 08:46:47;;;;;;;37.38;17.70;;;3.20;99.90;;;;;;5034946;28;20083;-65
2022/01/17 08:49:16;;;;;;;30.77;15.98;;;3.30;99.90;;;;;;5031403;28;20045;-66
2022/01/17 08:51:46;;;;;;;32.13;15.75;;;3.30;99.90;;;;;;5029982;28;20054;-66
2022/01/17 08:54:13;;;;;;;31.85;15.60;;;3.30;99.90;;;;;;5030719;28;20073;-67
2022/01/17 08:56:41;;;;;;;28.40;14.70;;;3.30;99.90;;;;;;5023667;28;20488;-65
2022/01/17 08:59:08;;;;;;;30.25;15.15;;;3.30;99.90;;;;;;5027745;28;20052;-65
2022/01/17 09:01:35;;;;;;;27.23;14.45;;;3.30;99.90;;;;;;5034375;28;20329;-65
2022/01/17 09:04:03;;;;;;;30.40;15.27;;;3.40;99.90;;;;;;5025058;28;20100;-67
2022/01/17 09:06:30;;;;;;;27.20;15.20;;;3.40;99.90;;;;;;5024977;28;20452;-67
2022/01/17 09:08:58;;;;;;;28.67;14.50;;;3.40;99.90;;;;;;5016072;28;20056;-66
2022/01/17 09:11:25;;;;;;;25.45;14.75;;;3.40;99.90;;;;;;5027987;28;20041;-66
2022/01/17 09:13:53;;;;;;;28.08;14.15;;;3.40;99.90;;;;;;5032147;28;20137;-66
2022/01/17 09:16:20;;;;;;;28.30;14.80;;;3.50;99.90;;;;;;5022377;28;20045;-66
2022/01/17 09:18:48;;;;;;;28.70;14.30;;;3.50;99.90;;;;;;5020012;28;20935;-67
2022/01/17 09:21:16;;;;;;;29.13;14.88;;;3.50;99.90;;;;;;5026950;28;20500;-65
2022/01/17 09:23:44;;;;;;;27.65;13.80;;;3.50;99.90;;;;;;5041795;28;20069;-66
2022/01/17 09:26:13;;;;;;;28.42;14.98;;;3.50;99.90;;;;;;5029922;28;20049;-68
2022/01/17 09:28:41;;;;;;;27.67;13.43;;;3.60;99.90;;;;;;5025883;28;20049;-65
2022/01/17 09:31:08;;;;;;;29.20;14.80;;;3.60;99.90;;;;;;5041154;28;20052;-68
2022/01/17 09:33:36;;;;;;;28.00;14.60;;;3.60;99.90;;;;;;5034110;28;20042;-65
2022/01/17 09:36:04;;;;;;;25.00;13.75;;;3.60;99.90;;;;;;5040571;28;20563;-66
2022/01/17 09:38:32;;;;;;;30.30;14.85;;;3.60;99.90;;;;;;5042349;28;20496;-66
2022/01/17 09:41:01;;;;;;;27.85;14.20;;;3.60;99.90;;;;;;5029290;28;20772;-68
2022/01/17 09:43:45;;;;;;;31.60;14.63;;;3.60;99.90;;;;;;5025666;28;20521;-66
2022/01/17 09:46:14;;;;;;;23.55;13.35;;;3.70;99.90;;;;;;5033887;28;20045;-67
2022/01/17 09:48:47;;;;;;;27.88;13.45;;;3.60;99.90;;;;;;5035606;28;20099;-66
2022/01/17 09:51:31;;;;;;;24.27;12.65;;;3.70;99.90;;;;;;5032004;28;20065;-67
2022/01/17 09:54:00;;;;;;;31.45;14.32;;;3.60;99.90;;;;;;5036256;28;20120;-66
2022/01/17 09:56:29;;;;;;;22.55;13.27;;;3.70;99.90;;;;;;5045654;28;20599;-66
2022/01/17 09:58:57;;;;;;;28.38;14.07;;;3.70;99.90;;;;;;5038894;28;20103;-66
2022/01/17 10:01:27;;;;;;;26.73;14.27;;;3.70;99.90;;;;;;5018611;28;20057;-66
2022/01/17 10:03:57;;;;;;;25.10;12.60;;;3.80;99.90;;;;;;5040417;28;20060;-66
2022/01/17 10:06:25;;;;;;;24.48;12.38;;;3.70;99.90;;;;;;5036135;28;20048;-66
2022/01/17 10:09:21;;;;;;;23.90;13.27;;;3.70;99.90;;;;;;5022696;28;20042;-66
2022/01/17 10:12:18;;;;;;;23.75;13.15;;;3.70;99.90;;;;;;5028501;28;20045;-67
2022/01/17 10:14:58;;;;;;;25.25;12.77;;;3.70;99.90;;;;;;5033339;28;20504;-66
2022/01/17 10:17:46;;;;;;;26.67;13.27;;;3.80;99.90;;;;;;5026176;28;20103;-66
2022/01/17 10:20:17;;;;;;;24.70;13.50;;;3.70;99.90;;;;;;5025563;28;20052;-66
2022/01/17 10:22:53;;;;;;;21.65;11.95;;;3.70;99.90;;;;;;5019218;28;20141;-67
2022/01/17 10:25:37;;;;;;;23.00;12.25;;;3.70;99.90;;;;;;5028429;28;20131;-65
2022/01/17 10:36:51;;;;;;;23.67;11.88;;;3.70;99.90;;;;;;5029956;28;20128;-66
2022/01/17 10:39:18;;;;;;;22.80;11.70;;;3.60;99.90;;;;;;5033375;28;20437;-67
2022/01/17 10:41:45;;;;;;;22.75;12.65;;;3.60;99.90;;;;;;5040651;28;20136;-67
2022/01/17 10:44:35;;;;;;;24.35;12.85;;;3.60;99.90;;;;;;5018206;28;20042;-65
2022/01/17 10:47:24;;;;;;;22.15;11.65;;;3.70;99.90;;;;;;5019552;28;20465;-68
2022/01/17 10:49:59;;;;;;;26.00;12.50;;;3.70;99.90;;;;;;5034340;28;20296;-67
2022/01/17 10:52:32;;;;;;;25.20;12.25;;;3.70;99.90;;;;;;5030471;28;20099;-67
2022/01/17 10:55:12;;;;;;;24.13;12.02;;;3.70;99.90;;;;;;5039457;28;20047;-67
2022/01/17 10:57:43;;;;;;;23.75;12.25;;;3.70;99.90;;;;;;5043800;28;20152;-65
2022/01/17 11:00:14;;;;;;;24.95;13.43;;;3.80;99.90;;;;;;5018874;28;20052;-67
2022/01/17 11:02:45;;;;;;;23.90;11.90;;;3.70;99.90;;;;;;5024575;28;20129;-67
2022/01/17 11:05:14;;;;;;;21.42;11.30;;;3.70;99.90;;;;;;5025366;28;20037;-66
2022/01/17 11:07:44;;;;;;;25.80;12.95;;;3.80;99.90;;;;;;5005940;28;20049;-65
2022/01/17 11:10:22;;;;;;;23.25;11.93;;;3.80;99.90;;;;;;5029017;28;20045;-66
2022/01/17 11:12:51;;;;;;;23.48;11.15;;;3.70;99.90;;;;;;5029917;28;20084;-67
2022/01/17 11:15:20;;;;;;;23.75;12.25;;;3.70;99.90;;;;;;5029808;28;20231;-66
2022/01/17 11:17:54;;;;;;;27.10;12.82;;;3.60;99.90;;;;;;5028503;28;20046;-67
2022/01/17 11:20:24;;;;;;;21.40;11.60;;;3.70;99.90;;;;;;5029439;28;20045;-66
2022/01/17 11:22:57;;;;;;;23.20;12.70;;;3.70;99.90;;;;;;5031697;28;20132;-65
2022/01/17 11:25:29;;;;;;;20.33;10.68;;;3.80;99.90;;;;;;5036621;28;20052;-65
2022/01/17 11:27:57;;;;;;;19.85;11.93;;;3.80;99.90;;;;;;5033512;28;20884;-67
2022/01/17 11:30:25;;;;;;;24.63;11.85;;;3.80;99.90;;;;;;5026102;28;20050;-67
2022/01/17 11:32:55;;;;;;;24.02;12.55;;;3.90;99.90;;;;;;5035773;28;20515;-66
2022/01/17 11:35:24;;;;;;;24.20;12.43;;;3.90;99.90;;;;;;5041756;28;20112;-66
2022/01/17 11:37:58;;;;;;;25.33;11.90;;;3.90;99.90;;;;;;5027090;28;20049;-67
2022/01/17 11:40:33;;;;;;;22.65;11.18;;;3.80;99.90;;;;;;5027634;28;20037;-68
2022/01/17 11:43:19;;;;;;;21.52;11.10;;;3.80;99.90;;;;;;5024458;28;20456;-66
2022/01/17 11:45:49;;;;;;;23.50;11.75;;;3.80;99.90;;;;;;5026139;28;20123;-69
2022/01/17 11:48:21;;;;;;;26.27;11.63;;;3.80;99.90;;;;;;5021651;28;20076;-66
2022/01/17 11:50:50;;;;;;;24.08;11.98;;;3.80;99.90;;;;;;5014869;28;20044;-67
2022/01/17 11:53:17;;;;;;;24.02;10.93;;;3.80;99.90;;;;;;5033335;28;20485;-68
2022/01/17 11:55:50;;;;;;;25.60;10.90;;;3.90;99.90;;;;;;5032872;28;20049;-68
2022/01/17 11:58:30;;;;;;;22.05;10.63;;;3.80;99.90;;;;;;5029847;28;20412;-68
2022/01/17 12:00:57;;;;;;;22.00;10.55;;;3.90;99.90;;;;;;5028922;28;20037;-69
2022/01/17 12:03:28;;;;;;;22.83;10.60;;;4.00;99.90;;;;;;5028301;28;20105;-68
2022/01/17 12:06:04;;;;;;;19.85;11.10;;;4.00;99.90;;;;;;5023320;28;20091;-66
2022/01/17 12:08:31;;;;;;;21.35;10.43;;;4.00;99.90;;;;;;5044270;28;20433;-67
2022/01/17 12:11:00;;;;;;;19.63;10.40;;;4.10;99.90;;;;;;5027889;28;20049;-66
2022/01/17 12:13:35;;;;;;;16.45;9.45;;;4.10;99.90;;;;;;5026070;28;20512;-67
2022/01/17 12:16:33;;;;;;;17.13;9.65;;;4.00;99.90;;;;;;5012012;28;20053;-66
2022/01/17 12:19:02;;;;;;;20.30;9.93;;;4.10;99.90;;;;;;5026962;28;20123;-67
2022/01/17 12:21:44;;;;;;;18.60;9.77;;;4.10;99.90;;;;;;5029763;28;20046;-66
2022/01/17 12:24:25;;;;;;;21.33;9.73;;;4.20;99.90;;;;;;5032938;28;20428;-66
2022/01/17 12:26:58;;;;;;;19.20;10.30;;;4.20;99.90;;;;;;5034312;28;20517;-67
2022/01/17 12:29:40;;;;;;;16.80;9.30;;;4.30;99.90;;;;;;5033139;28;20065;-67
2022/01/17 12:32:25;;;;;;;16.58;8.82;;;4.30;99.90;;;;;;5034860;28;20047;-67
2022/01/17 12:34:58;;;;;;;18.17;9.25;;;4.40;99.90;;;;;;5040088;28;20045;-66
2022/01/17 12:37:40;;;;;;;19.27;9.88;;;4.40;99.90;;;;;;5035660;28;20461;-67
2022/01/17 12:40:30;;;;;;;18.90;10.05;;;4.40;99.90;;;;;;5033841;28;20128;-67
2022/01/17 12:43:07;;;;;;;19.67;9.32;;;4.40;99.90;;;;;;5024921;28;20508;-66
2022/01/17 12:45:39;;;;;;;29.42;10.23;;;4.40;99.90;;;;;;5032611;28;20132;-65
2022/01/17 12:48:12;;;;;;;19.23;9.40;;;4.40;99.90;;;;;;5033093;28;20132;-68
2022/01/17 12:50:43;;;;;;;18.42;8.98;;;4.40;99.90;;;;;;5034022;28;20971;-68
2022/01/17 12:53:12;;;;;;;21.23;10.20;;;4.50;99.90;;;;;;5032114;28;20445;-65
2022/01/17 12:55:47;;;;;;;22.35;9.60;;;4.40;99.90;;;;;;5041265;28;20041;-68
2022/01/17 12:58:24;;;;;;;18.85;9.10;;;4.40;99.90;;;;;;5031424;28;20052;-67
2022/01/17 13:01:04;;;;;;;20.85;9.43;;;4.30;99.90;;;;;;5027822;28;20033;-65
2022/01/17 13:03:35;;;;;;;17.65;9.63;;;4.30;99.90;;;;;;5019301;28;20192;-66
2022/01/17 13:06:05;;;;;;;14.77;8.85;;;4.20;99.90;;;;;;5036652;28;20049;-66
2022/01/17 13:08:33;;;;;;;17.13;9.07;;;4.30;99.90;;;;;;5038219;28;20061;-67
2022/01/17 13:11:16;;;;;;;18.60;9.13;;;4.30;99.90;;;;;;5038482;28;20041;-67
2022/01/17 13:13:49;;;;;;;17.25;9.50;;;4.30;99.90;;;;;;5020261;28;20038;-66
2022/01/17 13:16:17;;;;;;;17.85;8.88;;;4.40;99.90;;;;;;5026879;28;20052;-67
2022/01/17 13:18:45;;;;;;;21.02;9.70;;;4.40;99.90;;;;;;5026569;28;20061;-67
2022/01/17 13:21:12;;;;;;;;;;;4.50;99.90;;;;;;5023761;28;20095;-65